Grand Forks International Airport
KGFK : now visible

Airfield :











YOU CAN JOIN US ON...

 
LOGIN :

Register | Disclaimer

   EN    FR    IT 

 









Legend :    VFR   Marginal VFR   IFR   Intensive IFR   Very Intensive IFR
Visi :
Ceiling :
>= 8 km
>= 3000ft
5 to 8 km
1000 to 3000 ft
1500m to 5 km
500 to 1000 ft
800 to 1500m
200 to 500 ft
< 800m
< 200 ft
Symbols :   Thunderstorms  Fog  Heavy snow  Heavy precipitations  Wind > 20 kt






- Airport Elevation : 845 ft
- IATA code : GFK


KGFK - Grand Forks International

CURRENT METAR :
  • 080953Z AUTO 29008KT 10SM CLR 01/M01 A2980 RMK AO2 SLP103 T00111011

EXPIRED METARs :
  • 080853Z AUTO 31010KT 10SM CLR 01/M01 A2978 RMK AO2 SLP093 I1000 I3000 T00111011 53017
  • 080753Z AUTO 30008KT 10SM CLR M01/M02 A2976 RMK AO2 SLP088 T10111022

TAF KGFK
Valid from the 08 at 06:00 until the 09 at 06:00 UTC


080520Z 0806/0906 29009KT P6SM SCT250
FM081600 30019G29KT P6SM BKN060
FM090100 31017KT P6SM SCT060



MET'MAP, your aeronautical weather chart ! - Copyright ORBIFLY December 2007 - Disclaimer

ORBIFLY MET'MAP TEAM :

Programming & Development : Alexandra Zaïnal
Concept & original design : Baudouin d'Aumeries
Assistance for programming : Marc-Olivier Méhu
Technical & hardware support : Manuel Goepfert

Contact : metmap@orbifly.com




SOURCES & CREDITS :

   NOAA       Earth
Advisory